sensor_id;sensor_type;location;lat;lon;timestamp;temperature;humidity
21123;DHT22;10719;48.130;11.630;2023-08-06T00:00:08;14.60;99.90
21123;DHT22;10719;48.130;11.630;2023-08-06T00:02:34;14.50;99.90
21123;DHT22;10719;48.130;11.630;2023-08-06T00:05:00;14.50;99.90
21123;DHT22;10719;48.130;11.630;2023-08-06T00:07:25;14.50;99.90
21123;DHT22;10719;48.130;11.630;2023-08-06T00:09:51;14.50;99.90
21123;DHT22;10719;48.130;11.630;2023-08-06T00:12:17;14.50;99.90
21123;DHT22;10719;48.130;11.630;2023-08-06T00:14:42;14.50;99.90
21123;DHT22;10719;48.130;11.630;2023-08-06T00:17:09;14.50;99.90
21123;DHT22;10719;48.130;11.630;2023-08-06T00:19:34;14.50;99.90
21123;DHT22;10719;48.130;11.630;2023-08-06T00:22:00;14.50;99.90
21123;DHT22;10719;48.130;11.630;2023-08-06T00:24:27;14.50;99.90
21123;DHT22;10719;48.130;11.630;2023-08-06T00:26:52;14.50;99.90
21123;DHT22;10719;48.130;11.630;2023-08-06T00:29:18;14.50;99.90
21123;DHT22;10719;48.130;11.630;2023-08-06T00:31:44;14.50;99.90
21123;DHT22;10719;48.130;11.630;2023-08-06T00:34:09;14.50;99.90
21123;DHT22;10719;48.130;11.630;2023-08-06T00:36:35;14.40;99.90
21123;DHT22;10719;48.130;11.630;2023-08-06T00:39:00;14.40;99.90
21123;DHT22;10719;48.130;11.630;2023-08-06T00:41:26;14.40;99.90
21123;DHT22;10719;48.130;11.630;2023-08-06T00:43:52;14.40;99.90
21123;DHT22;10719;48.130;11.630;2023-08-06T00:46:17;14.40;99.90
21123;DHT22;10719;48.130;11.630;2023-08-06T00:48:43;14.30;99.90
21123;DHT22;10719;48.130;11.630;2023-08-06T00:51:10;14.20;99.90
21123;DHT22;10719;48.130;11.630;2023-08-06T00:53:37;14.20;99.90
21123;DHT22;10719;48.130;11.630;2023-08-06T00:56:03;14.10;99.90
21123;DHT22;10719;48.130;11.630;2023-08-06T00:58:29;14.10;99.90
21123;DHT22;10719;48.130;11.630;2023-08-06T01:00:55;14.00;99.90
21123;DHT22;10719;48.130;11.630;2023-08-06T01:03:21;14.00;99.90
21123;DHT22;10719;48.130;11.630;2023-08-06T01:05:47;14.00;99.90
21123;DHT22;10719;48.130;11.630;2023-08-06T01:08:19;13.90;99.90
21123;DHT22;10719;48.130;11.630;2023-08-06T01:11:13;13.90;99.90
21123;DHT22;10719;48.130;11.630;2023-08-06T01:13:46;13.80;99.90
21123;DHT22;10719;48.130;11.630;2023-08-06T01:16:15;13.80;99.90
21123;DHT22;10719;48.130;11.630;2023-08-06T01:18:42;13.70;99.90
21123;DHT22;10719;48.130;11.630;2023-08-06T01:21:14;13.70;99.90
21123;DHT22;10719;48.130;11.630;2023-08-06T01:23:41;13.60;99.90
21123;DHT22;10719;48.130;11.630;2023-08-06T01:29:15;13.60;99.90
21123;DHT22;10719;48.130;11.630;2023-08-06T01:31:43;13.60;99.90
21123;DHT22;10719;48.130;11.630;2023-08-06T01:34:16;13.60;99.90
21123;DHT22;10719;48.130;11.630;2023-08-06T01:36:42;13.70;99.90
21123;DHT22;10719;48.130;11.630;2023-08-06T01:39:09;13.70;99.90
21123;DHT22;10719;48.130;11.630;2023-08-06T01:41:34;13.60;99.90
21123;DHT22;10719;48.130;11.630;2023-08-06T01:44:00;13.70;99.90
21123;DHT22;10719;48.130;11.630;2023-08-06T01:46:25;13.60;99.90
21123;DHT22;10719;48.130;11.630;2023-08-06T01:48:51;13.60;99.90
21123;DHT22;10719;48.130;11.630;2023-08-06T01:51:16;13.60;99.90
21123;DHT22;10719;48.130;11.630;2023-08-06T01:53:42;13.60;99.90
21123;DHT22;10719;48.130;11.630;2023-08-06T01:56:08;13.60;99.90
21123;DHT22;10719;48.130;11.630;2023-08-06T01:58:33;13.60;99.90
21123;DHT22;10719;48.130;11.630;2023-08-06T02:00:59;13.50;99.90
21123;DHT22;10719;48.130;11.630;2023-08-06T02:03:24;13.50;99.90
21123;DHT22;10719;48.130;11.630;2023-08-06T02:05:50;13.50;99.90
21123;DHT22;10719;48.130;11.630;2023-08-06T02:08:15;13.50;99.90
21123;DHT22;10719;48.130;11.630;2023-08-06T02:10:41;13.50;99.90
21123;DHT22;10719;48.130;11.630;2023-08-06T02:13:07;13.50;99.90
21123;DHT22;10719;48.130;11.630;2023-08-06T02:15:32;13.40;99.90
21123;DHT22;10719;48.130;11.630;2023-08-06T02:17:58;13.40;99.90
21123;DHT22;10719;48.130;11.630;2023-08-06T02:20:23;13.40;99.90
21123;DHT22;10719;48.130;11.630;2023-08-06T02:22:49;13.40;99.90
21123;DHT22;10719;48.130;11.630;2023-08-06T02:25:15;13.40;99.90
21123;DHT22;10719;48.130;11.630;2023-08-06T02:27:40;13.40;99.90
21123;DHT22;10719;48.130;11.630;2023-08-06T02:30:06;13.30;99.90
21123;DHT22;10719;48.130;11.630;2023-08-06T02:32:32;13.30;99.90
21123;DHT22;10719;48.130;11.630;2023-08-06T02:35:01;13.30;99.90
21123;DHT22;10719;48.130;11.630;2023-08-06T02:37:27;13.30;99.90
21123;DHT22;10719;48.130;11.630;2023-08-06T02:39:53;13.30;99.90
21123;DHT22;10719;48.130;11.630;2023-08-06T02:42:18;13.30;99.90
21123;DHT22;10719;48.130;11.630;2023-08-06T02:44:44;13.30;99.90
21123;DHT22;10719;48.130;11.630;2023-08-06T02:47:09;13.30;99.90
21123;DHT22;10719;48.130;11.630;2023-08-06T02:49:35;13.20;99.90
21123;DHT22;10719;48.130;11.630;2023-08-06T02:52:00;13.20;99.90
21123;DHT22;10719;48.130;11.630;2023-08-06T02:54:26;13.20;99.90
21123;DHT22;10719;48.130;11.630;2023-08-06T02:56:52;13.20;99.90
21123;DHT22;10719;48.130;11.630;2023-08-06T02:59:17;13.20;99.90
21123;DHT22;10719;48.130;11.630;2023-08-06T03:01:43;13.20;99.90
21123;DHT22;10719;48.130;11.630;2023-08-06T03:04:08;13.20;99.90
21123;DHT22;10719;48.130;11.630;2023-08-06T03:06:34;13.20;99.90
21123;DHT22;10719;48.130;11.630;2023-08-06T03:08:59;13.20;99.90
21123;DHT22;10719;48.130;11.630;2023-08-06T03:11:25;13.20;99.90
21123;DHT22;10719;48.130;11.630;2023-08-06T03:13:50;13.20;99.90
21123;DHT22;10719;48.130;11.630;2023-08-06T03:16:16;13.20;99.90
21123;DHT22;10719;48.130;11.630;2023-08-06T03:18:41;13.20;99.90
21123;DHT22;10719;48.130;11.630;2023-08-06T03:21:07;13.10;99.90
21123;DHT22;10719;48.130;11.630;2023-08-06T03:23:33;13.10;99.90
21123;DHT22;10719;48.130;11.630;2023-08-06T03:26:02;13.10;99.90
21123;DHT22;10719;48.130;11.630;2023-08-06T03:28:28;13.10;99.90
21123;DHT22;10719;48.130;11.630;2023-08-06T03:31:04;13.10;99.90
21123;DHT22;10719;48.130;11.630;2023-08-06T03:33:30;13.20;99.90
21123;DHT22;10719;48.130;11.630;2023-08-06T03:35:55;13.20;99.90
21123;DHT22;10719;48.130;11.630;2023-08-06T03:38:21;13.10;99.90
21123;DHT22;10719;48.130;11.630;2023-08-06T03:40:48;13.20;99.90
21123;DHT22;10719;48.130;11.630;2023-08-06T03:43:14;13.20;99.90
21123;DHT22;10719;48.130;11.630;2023-08-06T03:45:40;13.10;99.90
21123;DHT22;10719;48.130;11.630;2023-08-06T03:48:06;13.10;99.90
21123;DHT22;10719;48.130;11.630;2023-08-06T03:50:32;13.10;99.90
21123;DHT22;10719;48.130;11.630;2023-08-06T03:52:57;13.10;99.90
21123;DHT22;10719;48.130;11.630;2023-08-06T03:55:23;13.10;99.90
21123;DHT22;10719;48.130;11.630;2023-08-06T03:57:48;13.10;99.90
21123;DHT22;10719;48.130;11.630;2023-08-06T04:00:14;13.10;99.90
21123;DHT22;10719;48.130;11.630;2023-08-06T04:02:39;13.10;99.90
21123;DHT22;10719;48.130;11.630;2023-08-06T04:05:05;13.00;99.90
21123;DHT22;10719;48.130;11.630;2023-08-06T04:07:31;13.00;99.90
21123;DHT22;10719;48.130;11.630;2023-08-06T04:10:05;13.00;99.90
21123;DHT22;10719;48.130;11.630;2023-08-06T04:12:31;13.00;99.90
21123;DHT22;10719;48.130;11.630;2023-08-06T04:15:02;13.00;99.90
21123;DHT22;10719;48.130;11.630;2023-08-06T04:17:29;13.00;99.90
21123;DHT22;10719;48.130;11.630;2023-08-06T04:19:55;13.00;99.90
21123;DHT22;10719;48.130;11.630;2023-08-06T04:22:23;13.00;99.90
21123;DHT22;10719;48.130;11.630;2023-08-06T04:24:49;13.00;99.90
21123;DHT22;10719;48.130;11.630;2023-08-06T04:27:15;13.00;99.90
21123;DHT22;10719;48.130;11.630;2023-08-06T04:29:41;13.00;99.90
21123;DHT22;10719;48.130;11.630;2023-08-06T04:32:08;13.10;99.90
21123;DHT22;10719;48.130;11.630;2023-08-06T04:34:35;13.20;99.90
21123;DHT22;10719;48.130;11.630;2023-08-06T04:37:01;13.10;99.90
21123;DHT22;10719;48.130;11.630;2023-08-06T04:39:27;13.20;99.90
21123;DHT22;10719;48.130;11.630;2023-08-06T04:41:53;13.20;99.90
21123;DHT22;10719;48.130;11.630;2023-08-06T04:44:18;13.20;99.90
21123;DHT22;10719;48.130;11.630;2023-08-06T04:46:44;13.20;99.90
21123;DHT22;10719;48.130;11.630;2023-08-06T04:49:10;13.30;99.90
21123;DHT22;10719;48.130;11.630;2023-08-06T04:51:35;13.30;99.90
21123;DHT22;10719;48.130;11.630;2023-08-06T04:54:01;13.30;99.90
21123;DHT22;10719;48.130;11.630;2023-08-06T04:56:26;13.30;99.90
21123;DHT22;10719;48.130;11.630;2023-08-06T04:58:52;13.40;99.90
21123;DHT22;10719;48.130;11.630;2023-08-06T05:01:18;13.50;99.90
21123;DHT22;10719;48.130;11.630;2023-08-06T05:03:43;13.50;99.90
21123;DHT22;10719;48.130;11.630;2023-08-06T05:06:09;13.50;99.90
21123;DHT22;10719;48.130;11.630;2023-08-06T05:08:36;13.60;99.90
21123;DHT22;10719;48.130;11.630;2023-08-06T05:11:01;13.60;99.90
21123;DHT22;10719;48.130;11.630;2023-08-06T05:13:27;13.60;99.90
21123;DHT22;10719;48.130;11.630;2023-08-06T05:15:54;13.60;99.90
21123;DHT22;10719;48.130;11.630;2023-08-06T05:18:20;13.60;99.90
21123;DHT22;10719;48.130;11.630;2023-08-06T05:20:45;13.60;99.90
21123;DHT22;10719;48.130;11.630;2023-08-06T05:23:11;13.60;99.90
21123;DHT22;10719;48.130;11.630;2023-08-06T05:25:37;13.60;99.90
21123;DHT22;10719;48.130;11.630;2023-08-06T05:28:03;13.60;99.90
21123;DHT22;10719;48.130;11.630;2023-08-06T05:30:29;13.60;99.90
21123;DHT22;10719;48.130;11.630;2023-08-06T05:32:55;13.60;99.90
21123;DHT22;10719;48.130;11.630;2023-08-06T05:35:21;13.60;99.90
21123;DHT22;10719;48.130;11.630;2023-08-06T05:37:47;13.60;99.90
21123;DHT22;10719;48.130;11.630;2023-08-06T05:40:13;13.60;99.90
21123;DHT22;10719;48.130;11.630;2023-08-06T05:42:40;13.60;99.90
21123;DHT22;10719;48.130;11.630;2023-08-06T05:45:06;13.70;99.90
21123;DHT22;10719;48.130;11.630;2023-08-06T05:47:31;13.70;99.90
21123;DHT22;10719;48.130;11.630;2023-08-06T05:49:57;13.70;99.90
21123;DHT22;10719;48.130;11.630;2023-08-06T05:52:23;13.70;99.90
21123;DHT22;10719;48.130;11.630;2023-08-06T05:54:48;13.70;99.90
21123;DHT22;10719;48.130;11.630;2023-08-06T05:57:14;13.80;99.90
21123;DHT22;10719;48.130;11.630;2023-08-06T05:59:40;13.90;99.90
21123;DHT22;10719;48.130;11.630;2023-08-06T06:02:06;13.90;99.90
21123;DHT22;10719;48.130;11.630;2023-08-06T06:04:31;13.90;99.90
21123;DHT22;10719;48.130;11.630;2023-08-06T06:06:57;13.90;99.90
21123;DHT22;10719;48.130;11.630;2023-08-06T06:09:23;14.00;99.90
21123;DHT22;10719;48.130;11.630;2023-08-06T06:11:48;14.00;99.90
21123;DHT22;10719;48.130;11.630;2023-08-06T06:14:18;14.10;99.90
21123;DHT22;10719;48.130;11.630;2023-08-06T06:16:44;14.20;99.90
21123;DHT22;10719;48.130;11.630;2023-08-06T06:19:10;14.20;99.90
21123;DHT22;10719;48.130;11.630;2023-08-06T06:21:36;14.30;99.90
21123;DHT22;10719;48.130;11.630;2023-08-06T06:24:03;14.30;99.90
21123;DHT22;10719;48.130;11.630;2023-08-06T06:26:30;14.30;99.90
21123;DHT22;10719;48.130;11.630;2023-08-06T06:28:55;14.40;99.90
21123;DHT22;10719;48.130;11.630;2023-08-06T06:31:21;14.50;99.90
21123;DHT22;10719;48.130;11.630;2023-08-06T06:33:47;14.60;99.90
21123;DHT22;10719;48.130;11.630;2023-08-06T06:36:12;14.50;99.90
21123;DHT22;10719;48.130;11.630;2023-08-06T06:38:38;14.60;99.90
21123;DHT22;10719;48.130;11.630;2023-08-06T06:41:04;14.70;99.90
21123;DHT22;10719;48.130;11.630;2023-08-06T06:43:29;14.80;99.90
21123;DHT22;10719;48.130;11.630;2023-08-06T06:46:01;14.90;99.90
21123;DHT22;10719;48.130;11.630;2023-08-06T06:48:28;15.10;99.90
21123;DHT22;10719;48.130;11.630;2023-08-06T06:50:54;15.10;99.90
21123;DHT22;10719;48.130;11.630;2023-08-06T06:53:20;15.20;99.90
21123;DHT22;10719;48.130;11.630;2023-08-06T06:55:48;15.10;99.90
21123;DHT22;10719;48.130;11.630;2023-08-06T06:58:15;15.10;99.90
21123;DHT22;10719;48.130;11.630;2023-08-06T07:00:41;15.10;99.90
21123;DHT22;10719;48.130;11.630;2023-08-06T07:03:07;15.10;99.90
21123;DHT22;10719;48.130;11.630;2023-08-06T07:05:32;15.30;99.90
21123;DHT22;10719;48.130;11.630;2023-08-06T07:07:58;15.40;99.90
21123;DHT22;10719;48.130;11.630;2023-08-06T07:10:23;15.30;99.90
21123;DHT22;10719;48.130;11.630;2023-08-06T07:12:49;15.30;99.90
21123;DHT22;10719;48.130;11.630;2023-08-06T07:15:15;15.40;99.90
21123;DHT22;10719;48.130;11.630;2023-08-06T07:17:43;15.70;99.90
21123;DHT22;10719;48.130;11.630;2023-08-06T07:20:08;15.80;99.90
21123;DHT22;10719;48.130;11.630;2023-08-06T07:22:34;15.80;99.90
21123;DHT22;10719;48.130;11.630;2023-08-06T07:24:59;15.80;99.90
21123;DHT22;10719;48.130;11.630;2023-08-06T07:27:25;15.70;99.90
21123;DHT22;10719;48.130;11.630;2023-08-06T07:29:51;15.70;99.90
21123;DHT22;10719;48.130;11.630;2023-08-06T07:32:16;15.60;99.90
21123;DHT22;10719;48.130;11.630;2023-08-06T07:34:42;15.40;99.90
21123;DHT22;10719;48.130;11.630;2023-08-06T07:37:07;15.20;99.90
21123;DHT22;10719;48.130;11.630;2023-08-06T07:39:33;15.00;99.90
21123;DHT22;10719;48.130;11.630;2023-08-06T07:41:58;14.90;99.90
21123;DHT22;10719;48.130;11.630;2023-08-06T07:44:24;14.90;99.90
21123;DHT22;10719;48.130;11.630;2023-08-06T07:46:50;14.80;99.90
21123;DHT22;10719;48.130;11.630;2023-08-06T07:49:15;14.70;99.90
21123;DHT22;10719;48.130;11.630;2023-08-06T07:51:41;14.70;99.90
21123;DHT22;10719;48.130;11.630;2023-08-06T07:54:08;14.70;99.90
21123;DHT22;10719;48.130;11.630;2023-08-06T07:56:33;14.60;99.90
21123;DHT22;10719;48.130;11.630;2023-08-06T07:58:59;14.60;99.90
21123;DHT22;10719;48.130;11.630;2023-08-06T08:01:25;14.60;99.90
21123;DHT22;10719;48.130;11.630;2023-08-06T08:03:50;14.70;99.90
21123;DHT22;10719;48.130;11.630;2023-08-06T08:06:16;14.80;99.90
21123;DHT22;10719;48.130;11.630;2023-08-06T08:08:42;14.90;99.90
21123;DHT22;10719;48.130;11.630;2023-08-06T08:11:08;15.10;99.90
21123;DHT22;10719;48.130;11.630;2023-08-06T08:13:33;15.40;99.90
21123;DHT22;10719;48.130;11.630;2023-08-06T08:16:00;15.50;99.90
21123;DHT22;10719;48.130;11.630;2023-08-06T08:18:26;15.90;99.90
21123;DHT22;10719;48.130;11.630;2023-08-06T08:20:51;16.00;99.90
21123;DHT22;10719;48.130;11.630;2023-08-06T08:23:17;16.10;99.90
21123;DHT22;10719;48.130;11.630;2023-08-06T08:25:43;15.90;99.90
21123;DHT22;10719;48.130;11.630;2023-08-06T08:28:08;16.00;99.90
21123;DHT22;10719;48.130;11.630;2023-08-06T08:30:34;16.10;99.90
21123;DHT22;10719;48.130;11.630;2023-08-06T08:32:59;16.10;99.90
21123;DHT22;10719;48.130;11.630;2023-08-06T08:35:25;16.30;99.90
21123;DHT22;10719;48.130;11.630;2023-08-06T08:37:51;16.60;99.90
21123;DHT22;10719;48.130;11.630;2023-08-06T08:40:17;16.70;99.90
21123;DHT22;10719;48.130;11.630;2023-08-06T08:42:43;17.10;99.90
21123;DHT22;10719;48.130;11.630;2023-08-06T08:45:13;17.20;99.90
21123;DHT22;10719;48.130;11.630;2023-08-06T08:47:43;16.70;99.90
21123;DHT22;10719;48.130;11.630;2023-08-06T08:50:09;16.30;99.90
21123;DHT22;10719;48.130;11.630;2023-08-06T08:52:36;16.30;99.90
21123;DHT22;10719;48.130;11.630;2023-08-06T08:55:03;16.20;99.90
21123;DHT22;10719;48.130;11.630;2023-08-06T08:57:29;16.10;99.90
21123;DHT22;10719;48.130;11.630;2023-08-06T08:59:55;16.10;99.90
21123;DHT22;10719;48.130;11.630;2023-08-06T09:02:21;16.10;99.90
21123;DHT22;10719;48.130;11.630;2023-08-06T09:04:48;16.00;99.90
21123;DHT22;10719;48.130;11.630;2023-08-06T09:07:18;16.10;99.90
21123;DHT22;10719;48.130;11.630;2023-08-06T09:09:47;16.30;99.90
21123;DHT22;10719;48.130;11.630;2023-08-06T09:12:17;16.30;99.90
21123;DHT22;10719;48.130;11.630;2023-08-06T09:14:43;16.10;99.90
21123;DHT22;10719;48.130;11.630;2023-08-06T09:17:09;16.20;99.90
21123;DHT22;10719;48.130;11.630;2023-08-06T09:19:36;16.40;99.90
21123;DHT22;10719;48.130;11.630;2023-08-06T09:22:02;16.20;99.90
21123;DHT22;10719;48.130;11.630;2023-08-06T09:24:28;15.80;99.90
21123;DHT22;10719;48.130;11.630;2023-08-06T09:26:54;15.80;99.90
21123;DHT22;10719;48.130;11.630;2023-08-06T09:29:20;15.70;99.90
21123;DHT22;10719;48.130;11.630;2023-08-06T09:31:50;15.60;99.90
21123;DHT22;10719;48.130;11.630;2023-08-06T09:34:20;15.70;99.90
21123;DHT22;10719;48.130;11.630;2023-08-06T09:36:51;15.60;99.90
21123;DHT22;10719;48.130;11.630;2023-08-06T09:39:24;15.60;99.90
21123;DHT22;10719;48.130;11.630;2023-08-06T09:41:56;15.60;99.90
21123;DHT22;10719;48.130;11.630;2023-08-06T09:44:22;15.70;99.90
21123;DHT22;10719;48.130;11.630;2023-08-06T09:46:50;15.50;99.90
21123;DHT22;10719;48.130;11.630;2023-08-06T09:49:22;15.70;99.90
21123;DHT22;10719;48.130;11.630;2023-08-06T09:51:47;15.70;99.90
21123;DHT22;10719;48.130;11.630;2023-08-06T09:54:16;15.50;99.90
21123;DHT22;10719;48.130;11.630;2023-08-06T09:56:43;15.60;99.90
21123;DHT22;10719;48.130;11.630;2023-08-06T09:59:09;15.70;99.90
21123;DHT22;10719;48.130;11.630;2023-08-06T10:01:36;15.70;99.90
21123;DHT22;10719;48.130;11.630;2023-08-06T10:04:06;15.50;99.90
21123;DHT22;10719;48.130;11.630;2023-08-06T10:06:37;15.70;99.90
21123;DHT22;10719;48.130;11.630;2023-08-06T10:09:06;15.80;99.90
21123;DHT22;10719;48.130;11.630;2023-08-06T10:11:31;15.70;99.90
21123;DHT22;10719;48.130;11.630;2023-08-06T10:14:12;15.60;99.90
21123;DHT22;10719;48.130;11.630;2023-08-06T10:16:39;15.50;99.90
21123;DHT22;10719;48.130;11.630;2023-08-06T10:19:07;15.50;99.90
21123;DHT22;10719;48.130;11.630;2023-08-06T10:21:34;15.30;99.90
21123;DHT22;10719;48.130;11.630;2023-08-06T10:23:59;15.20;99.90
21123;DHT22;10719;48.130;11.630;2023-08-06T10:26:27;15.30;99.90
21123;DHT22;10719;48.130;11.630;2023-08-06T10:28:53;15.40;99.90
21123;DHT22;10719;48.130;11.630;2023-08-06T10:31:19;15.70;99.90
21123;DHT22;10719;48.130;11.630;2023-08-06T10:33:46;16.10;99.90
21123;DHT22;10719;48.130;11.630;2023-08-06T10:36:13;16.20;99.90
21123;DHT22;10719;48.130;11.630;2023-08-06T10:41:22;16.40;99.90
21123;DHT22;10719;48.130;11.630;2023-08-06T10:43:49;16.10;99.90
21123;DHT22;10719;48.130;11.630;2023-08-06T10:46:27;15.90;99.90
21123;DHT22;10719;48.130;11.630;2023-08-06T10:48:53;15.90;99.90
21123;DHT22;10719;48.130;11.630;2023-08-06T10:51:19;16.20;99.90
21123;DHT22;10719;48.130;11.630;2023-08-06T10:53:46;16.30;99.90
21123;DHT22;10719;48.130;11.630;2023-08-06T10:56:13;16.20;99.90
21123;DHT22;10719;48.130;11.630;2023-08-06T10:58:39;16.10;99.90
21123;DHT22;10719;48.130;11.630;2023-08-06T11:01:05;16.00;99.90
21123;DHT22;10719;48.130;11.630;2023-08-06T11:03:32;16.00;99.90
21123;DHT22;10719;48.130;11.630;2023-08-06T11:05:58;16.20;99.90
21123;DHT22;10719;48.130;11.630;2023-08-06T11:08:28;16.60;99.90
21123;DHT22;10719;48.130;11.630;2023-08-06T11:10:54;17.20;99.90
21123;DHT22;10719;48.130;11.630;2023-08-06T11:13:21;17.30;99.90
21123;DHT22;10719;48.130;11.630;2023-08-06T11:15:47;16.80;99.90
21123;DHT22;10719;48.130;11.630;2023-08-06T11:18:13;16.70;99.90
21123;DHT22;10719;48.130;11.630;2023-08-06T11:20:39;16.60;99.90
21123;DHT22;10719;48.130;11.630;2023-08-06T11:23:05;16.40;99.90
21123;DHT22;10719;48.130;11.630;2023-08-06T11:25:30;16.30;99.90
21123;DHT22;10719;48.130;11.630;2023-08-06T11:27:56;16.00;99.90
21123;DHT22;10719;48.130;11.630;2023-08-06T11:30:22;16.00;99.90
21123;DHT22;10719;48.130;11.630;2023-08-06T11:32:48;16.00;99.90
21123;DHT22;10719;48.130;11.630;2023-08-06T11:35:15;16.10;99.90
21123;DHT22;10719;48.130;11.630;2023-08-06T11:37:44;16.10;99.90
21123;DHT22;10719;48.130;11.630;2023-08-06T11:40:11;16.30;99.90
21123;DHT22;10719;48.130;11.630;2023-08-06T11:42:37;16.40;99.90
21123;DHT22;10719;48.130;11.630;2023-08-06T11:45:03;16.10;99.90
21123;DHT22;10719;48.130;11.630;2023-08-06T11:47:30;16.00;99.90
21123;DHT22;10719;48.130;11.630;2023-08-06T11:49:56;16.00;99.90
21123;DHT22;10719;48.130;11.630;2023-08-06T11:52:25;16.20;99.90
21123;DHT22;10719;48.130;11.630;2023-08-06T11:55:06;16.10;99.90
21123;DHT22;10719;48.130;11.630;2023-08-06T11:57:36;16.40;99.90
21123;DHT22;10719;48.130;11.630;2023-08-06T12:00:06;16.30;99.90
21123;DHT22;10719;48.130;11.630;2023-08-06T12:02:33;16.20;99.90
21123;DHT22;10719;48.130;11.630;2023-08-06T12:05:53;16.10;99.90
21123;DHT22;10719;48.130;11.630;2023-08-06T12:08:03;16.00;99.90
21123;DHT22;10719;48.130;11.630;2023-08-06T12:10:30;15.60;99.90
21123;DHT22;10719;48.130;11.630;2023-08-06T12:12:56;15.80;99.90
21123;DHT22;10719;48.130;11.630;2023-08-06T12:15:23;15.70;99.90
21123;DHT22;10719;48.130;11.630;2023-08-06T12:17:49;15.80;99.90
21123;DHT22;10719;48.130;11.630;2023-08-06T12:20:15;15.60;99.90
21123;DHT22;10719;48.130;11.630;2023-08-06T12:22:41;15.80;99.90
21123;DHT22;10719;48.130;11.630;2023-08-06T12:25:08;15.80;99.90
21123;DHT22;10719;48.130;11.630;2023-08-06T12:27:36;16.00;99.90
21123;DHT22;10719;48.130;11.630;2023-08-06T12:30:02;16.00;99.90
21123;DHT22;10719;48.130;11.630;2023-08-06T12:32:29;15.80;99.90
21123;DHT22;10719;48.130;11.630;2023-08-06T12:34:54;15.90;99.90
21123;DHT22;10719;48.130;11.630;2023-08-06T12:37:20;15.70;99.90
21123;DHT22;10719;48.130;11.630;2023-08-06T12:39:46;15.70;99.90
21123;DHT22;10719;48.130;11.630;2023-08-06T12:42:12;15.60;99.90
21123;DHT22;10719;48.130;11.630;2023-08-06T12:44:37;15.60;99.90
21123;DHT22;10719;48.130;11.630;2023-08-06T12:47:03;15.60;99.90
21123;DHT22;10719;48.130;11.630;2023-08-06T12:49:28;15.70;99.90
21123;DHT22;10719;48.130;11.630;2023-08-06T12:51:55;15.50;99.90
21123;DHT22;10719;48.130;11.630;2023-08-06T12:54:22;15.40;99.90
21123;DHT22;10719;48.130;11.630;2023-08-06T12:56:48;15.10;99.90
21123;DHT22;10719;48.130;11.630;2023-08-06T12:59:15;15.00;99.90
21123;DHT22;10719;48.130;11.630;2023-08-06T13:01:41;15.00;99.90
21123;DHT22;10719;48.130;11.630;2023-08-06T13:04:06;15.20;99.90
21123;DHT22;10719;48.130;11.630;2023-08-06T13:06:32;15.40;99.90
21123;DHT22;10719;48.130;11.630;2023-08-06T13:09:02;15.80;99.90
21123;DHT22;10719;48.130;11.630;2023-08-06T13:11:29;16.00;99.90
21123;DHT22;10719;48.130;11.630;2023-08-06T13:13:55;15.90;99.90
21123;DHT22;10719;48.130;11.630;2023-08-06T13:16:20;16.00;99.90
21123;DHT22;10719;48.130;11.630;2023-08-06T13:18:46;16.20;99.90
21123;DHT22;10719;48.130;11.630;2023-08-06T13:21:12;16.70;99.90
21123;DHT22;10719;48.130;11.630;2023-08-06T13:23:38;17.20;99.90
21123;DHT22;10719;48.130;11.630;2023-08-06T13:26:03;17.70;99.90
21123;DHT22;10719;48.130;11.630;2023-08-06T13:28:29;18.60;99.90
21123;DHT22;10719;48.130;11.630;2023-08-06T13:30:55;17.00;99.90
21123;DHT22;10719;48.130;11.630;2023-08-06T13:33:21;15.80;99.90
21123;DHT22;10719;48.130;11.630;2023-08-06T13:35:46;15.40;99.90
21123;DHT22;10719;48.130;11.630;2023-08-06T13:38:12;15.00;99.90
21123;DHT22;10719;48.130;11.630;2023-08-06T13:40:37;14.70;99.90
21123;DHT22;10719;48.130;11.630;2023-08-06T13:43:03;14.60;99.90
21123;DHT22;10719;48.130;11.630;2023-08-06T13:45:29;14.80;99.90
21123;DHT22;10719;48.130;11.630;2023-08-06T13:47:56;15.40;99.90
21123;DHT22;10719;48.130;11.630;2023-08-06T13:50:22;15.90;99.90
21123;DHT22;10719;48.130;11.630;2023-08-06T13:52:50;15.40;99.90
21123;DHT22;10719;48.130;11.630;2023-08-06T13:55:18;15.00;99.90
21123;DHT22;10719;48.130;11.630;2023-08-06T13:57:44;15.00;99.90
21123;DHT22;10719;48.130;11.630;2023-08-06T14:00:09;14.90;99.90
21123;DHT22;10719;48.130;11.630;2023-08-06T14:02:36;14.90;99.90
21123;DHT22;10719;48.130;11.630;2023-08-06T14:05:02;14.70;99.90
21123;DHT22;10719;48.130;11.630;2023-08-06T14:07:28;14.70;99.90
21123;DHT22;10719;48.130;11.630;2023-08-06T14:09:54;14.40;99.90
21123;DHT22;10719;48.130;11.630;2023-08-06T14:12:19;14.40;99.90
21123;DHT22;10719;48.130;11.630;2023-08-06T14:14:45;14.30;99.90
21123;DHT22;10719;48.130;11.630;2023-08-06T14:17:11;14.50;99.90
21123;DHT22;10719;48.130;11.630;2023-08-06T14:19:36;14.40;99.90
21123;DHT22;10719;48.130;11.630;2023-08-06T14:22:02;14.40;99.90
21123;DHT22;10719;48.130;11.630;2023-08-06T14:24:27;14.30;99.90
21123;DHT22;10719;48.130;11.630;2023-08-06T14:26:53;14.30;99.90
21123;DHT22;10719;48.130;11.630;2023-08-06T14:29:18;14.10;99.90
21123;DHT22;10719;48.130;11.630;2023-08-06T14:31:44;14.00;99.90
21123;DHT22;10719;48.130;11.630;2023-08-06T14:34:09;14.00;99.90
21123;DHT22;10719;48.130;11.630;2023-08-06T14:36:35;14.00;99.90
21123;DHT22;10719;48.130;11.630;2023-08-06T14:39:01;14.10;99.90
21123;DHT22;10719;48.130;11.630;2023-08-06T14:41:26;13.90;99.90
21123;DHT22;10719;48.130;11.630;2023-08-06T14:43:52;13.90;99.90
21123;DHT22;10719;48.130;11.630;2023-08-06T14:46:19;13.70;99.90
21123;DHT22;10719;48.130;11.630;2023-08-06T14:48:44;13.70;99.90
21123;DHT22;10719;48.130;11.630;2023-08-06T14:51:10;13.70;99.90
21123;DHT22;10719;48.130;11.630;2023-08-06T14:53:35;13.50;99.90
21123;DHT22;10719;48.130;11.630;2023-08-06T14:56:01;13.60;99.90
21123;DHT22;10719;48.130;11.630;2023-08-06T14:58:27;13.70;99.90
21123;DHT22;10719;48.130;11.630;2023-08-06T15:00:52;13.60;99.90
21123;DHT22;10719;48.130;11.630;2023-08-06T15:03:18;13.50;99.90
21123;DHT22;10719;48.130;11.630;2023-08-06T15:05:46;13.50;99.90
21123;DHT22;10719;48.130;11.630;2023-08-06T15:08:12;13.40;99.90
21123;DHT22;10719;48.130;11.630;2023-08-06T15:10:37;13.40;99.90
21123;DHT22;10719;48.130;11.630;2023-08-06T15:13:03;13.30;99.90
21123;DHT22;10719;48.130;11.630;2023-08-06T15:15:29;13.30;99.90